Terminal Aerodrome Forecast
Issued by NWS

Home | Current Version | Previous Version | Text Only | Print | Product List | Glossary On
Versions: 1 2 3 4 5 6 7 8 9 10 11 12 13 14 15 16 17 18 19 20 21 22 23 24 25 26 27 28 29 30 31 32 33 34 35 36 37
368
FTUS41 KOKX 290820 AAA
TAFTEB
TAF AMD
KTEB 290820Z 2908/3006 00000KT 6SM SHRA BR VCTS SCT005 BKN050CB
      TEMPO 2908/2912 4SM BR BKN015
     FM291200 19006KT 6SM BR FEW005 BKN025
     FM291400 26008KT P6SM BKN150
     FM291600 28009G16KT P6SM BKN200
     FM292200 31012G23KT P6SM BKN250
     FM300000 VRB04KT P6SM BKN200=

USA.gov is the U.S. government's official web portal to all federal, state and local government web resources and services.